Terminal Aerodrome Forecast
Issued by NWS Sioux Falls, SD

Home | Current Version | Previous Version | Graphics & Text | Print | Product List | Glossary On
Versions: 1 2 3 4 5 6 7 8 9 10 11 12 13 14 15 16 17 18 19 20
000
FTUS43 KFSD 240500
TAFHON
TAF
KHON 240539Z 2406/2506 12009KT P6SM SCT250
      TEMPO 2411/2415 6SM TSRA BKN060CB
     FM241500 15012G18KT P6SM BKN120
     FM241600 15016G24KT P6SM SCT060 BKN250
     FM250300 12009KT P6SM BKN120=

USA.gov is the U.S. government's official web portal to all federal, state and local government web resources and services.